Time;durP1;ratioP1;P1;durP2;ratioP2;P2;SDS_P1;SDS_P2;PMS_P1;PMS_P2;Temp;Humidity;BMP_temperature;BMP_pressure;BME280_temperature;BME280_humidity;BME280_pressure;Samples;Min_cycle;Max_cycle;Signal;HPM_P1;HPM_P2
2022/07/16 00:03:33;;;;;;;2.85;0.80;;;17.00;99.90;;;;;;5051681;28;20223;-70
2022/07/16 00:05:59;;;;;;;0.95;0.65;;;17.00;99.90;;;;;;5048778;28;20176;-70
2022/07/16 00:08:24;;;;;;;1.85;0.88;;;17.00;99.90;;;;;;5049688;28;20211;-70
2022/07/16 00:10:50;;;;;;;2.55;0.70;;;17.00;99.90;;;;;;5051570;28;20651;-70
2022/07/16 00:13:16;;;;;;;1.95;1.00;;;17.00;99.90;;;;;;5037486;28;20258;-70
2022/07/16 00:15:41;;;;;;;2.97;0.70;;;16.90;99.90;;;;;;5051109;28;20623;-70
2022/07/16 00:21:11;;;;;;;1.35;1.08;;;17.00;99.90;;;;;;4982385;28;20250;-70
2022/07/16 00:23:36;;;;;;;1.08;0.80;;;17.10;99.90;;;;;;4989880;28;20602;-70
2022/07/16 00:26:02;;;;;;;2.38;0.90;;;17.10;99.90;;;;;;5014191;28;20261;-70
2022/07/16 00:28:27;;;;;;;2.08;0.95;;;17.10;99.90;;;;;;5050428;28;20823;-70
2022/07/16 00:30:53;;;;;;;1.88;0.82;;;16.90;99.90;;;;;;5051024;28;20234;-70
2022/07/16 00:33:18;;;;;;;2.33;0.93;;;17.00;99.90;;;;;;5050795;28;20274;-70
2022/07/16 00:35:44;;;;;;;3.22;1.35;;;17.00;99.90;;;;;;5051169;28;20629;-69
2022/07/16 00:38:10;;;;;;;2.45;0.70;;;17.00;99.90;;;;;;5050689;28;20211;-70
2022/07/16 00:40:35;;;;;;;2.03;0.63;;;16.90;99.90;;;;;;5050484;28;20204;-70
2022/07/16 00:43:01;;;;;;;2.47;0.80;;;16.90;99.90;;;;;;5050670;28;20261;-70
2022/07/16 00:45:27;;;;;;;2.80;0.90;;;16.90;99.90;;;;;;5050661;28;20298;-71
2022/07/16 00:47:53;;;;;;;1.27;0.80;;;16.80;99.90;;;;;;5051186;28;20196;-70
2022/07/16 00:50:19;;;;;;;1.30;0.60;;;16.80;99.90;;;;;;5050514;28;20203;-70
2022/07/16 00:52:44;;;;;;;1.23;0.80;;;16.90;99.90;;;;;;5050479;28;20211;-68
2022/07/16 00:55:10;;;;;;;1.55;0.60;;;16.90;99.90;;;;;;5050734;28;20291;-70
2022/07/16 00:57:36;;;;;;;2.22;0.63;;;16.90;99.90;;;;;;5050702;28;20207;-70
2022/07/16 01:00:04;;;;;;;1.50;0.57;;;16.90;99.90;;;;;;5051056;28;20175;-69
2022/07/16 01:02:29;;;;;;;3.17;0.90;;;16.90;99.90;;;;;;5050443;28;20215;-69
2022/07/16 01:04:55;;;;;;;1.27;0.70;;;16.90;99.90;;;;;;5050719;28;20230;-69
2022/07/16 01:07:22;;;;;;;1.83;0.57;;;16.90;99.90;;;;;;5050358;28;20215;-69
2022/07/16 01:09:50;;;;;;;1.10;0.70;;;16.90;99.90;;;;;;5050227;28;20270;-69
2022/07/16 01:12:16;;;;;;;0.95;0.75;;;17.00;99.90;;;;;;5050408;28;20202;-70
2022/07/16 01:14:42;;;;;;;2.20;0.80;;;16.90;99.90;;;;;;5051023;28;20258;-70
2022/07/16 01:17:08;;;;;;;1.48;0.75;;;16.90;99.90;;;;;;5050630;28;20570;-70
2022/07/16 01:19:33;;;;;;;1.77;0.57;;;16.90;99.90;;;;;;5049985;28;20287;-70
2022/07/16 01:21:59;;;;;;;1.27;0.70;;;16.90;99.90;;;;;;5050274;28;20215;-70
2022/07/16 01:24:24;;;;;;;2.55;0.60;;;16.90;99.90;;;;;;5050198;28;20258;-70
2022/07/16 01:26:50;;;;;;;2.38;0.70;;;16.90;99.90;;;;;;5032834;28;20191;-69
2022/07/16 01:29:15;;;;;;;2.60;0.80;;;16.80;99.90;;;;;;5050159;28;20204;-70
2022/07/16 01:31:41;;;;;;;0.88;0.60;;;16.90;99.90;;;;;;5032509;28;20207;-70
2022/07/16 01:34:25;;;;;;;1.75;0.73;;;16.80;99.90;;;;;;5050226;28;20606;-71
2022/07/16 01:37:03;;;;;;;1.73;0.70;;;16.80;99.90;;;;;;5050155;28;20586;-71
2022/07/16 01:39:30;;;;;;;1.85;0.80;;;16.70;99.90;;;;;;5049988;28;20262;-70
2022/07/16 01:41:58;;;;;;;0.98;0.70;;;16.80;99.90;;;;;;5046429;28;20184;-71
2022/07/16 01:44:25;;;;;;;1.60;0.70;;;16.80;99.90;;;;;;5046263;28;20312;-71
2022/07/16 01:46:52;;;;;;;1.67;0.70;;;16.70;99.90;;;;;;5048399;28;20200;-71
2022/07/16 01:49:17;;;;;;;0.95;0.50;;;16.70;99.90;;;;;;5049968;28;20735;-71
2022/07/16 01:51:43;;;;;;;0.52;0.50;;;16.70;99.90;;;;;;5050243;28;20204;-70
2022/07/16 01:54:09;;;;;;;1.83;1.00;;;16.70;99.90;;;;;;5050221;28;20172;-71
2022/07/16 01:56:35;;;;;;;3.42;0.80;;;16.70;99.90;;;;;;5054452;28;20182;-71
2022/07/16 01:59:01;;;;;;;2.25;1.08;;;16.70;99.90;;;;;;5053376;28;20200;-71
2022/07/16 02:01:27;;;;;;;1.73;0.60;;;16.60;99.90;;;;;;5053502;28;20683;-71
2022/07/16 02:03:52;;;;;;;2.10;0.70;;;16.70;99.90;;;;;;5048392;28;20348;-71
2022/07/16 02:06:18;;;;;;;1.33;0.60;;;16.60;99.90;;;;;;5052984;28;20180;-70
2022/07/16 02:08:43;;;;;;;1.75;0.75;;;16.60;99.90;;;;;;5053229;28;20207;-69
2022/07/16 02:11:09;;;;;;;2.03;0.90;;;16.60;99.90;;;;;;5035431;28;20227;-71
2022/07/16 02:13:35;;;;;;;3.65;0.80;;;16.70;99.90;;;;;;5082216;22;20614;-70
2022/07/16 02:16:00;;;;;;;1.98;0.70;;;16.70;99.90;;;;;;5093273;28;20208;-70
2022/07/16 02:18:26;;;;;;;4.93;1.15;;;16.70;99.90;;;;;;5092874;28;20218;-70
2022/07/16 02:20:52;;;;;;;3.53;2.30;;;16.70;99.90;;;;;;5075741;28;20647;-69
2022/07/16 02:23:18;;;;;;;2.08;1.25;;;16.80;99.90;;;;;;5092956;28;20198;-70
2022/07/16 02:25:43;;;;;;;3.35;1.35;;;16.80;99.90;;;;;;5093108;28;20198;-70
2022/07/16 02:28:09;;;;;;;7.15;3.35;;;16.70;99.90;;;;;;5093232;28;20214;-70
2022/07/16 02:30:43;;;;;;;4.40;1.45;;;16.70;99.90;;;;;;5074783;28;20313;-69
2022/07/16 02:33:10;;;;;;;9.10;3.78;;;16.70;99.90;;;;;;5093176;28;20191;-70
2022/07/16 02:35:36;;;;;;;3.28;1.80;;;16.70;99.90;;;;;;5092978;28;20265;-70
2022/07/16 02:38:03;;;;;;;10.60;5.68;;;16.60;99.90;;;;;;5093108;28;20221;-70
2022/07/16 02:40:29;;;;;;;2.88;1.88;;;16.60;99.90;;;;;;5092991;28;20283;-70
2022/07/16 02:42:55;;;;;;;4.82;2.97;;;16.50;99.90;;;;;;5093043;28;20750;-69
2022/07/16 02:45:21;;;;;;;4.97;2.35;;;16.60;99.90;;;;;;5092803;28;20653;-68
2022/07/16 02:47:47;;;;;;;2.80;1.10;;;16.60;99.90;;;;;;5093030;28;20198;-70
2022/07/16 02:50:12;;;;;;;4.28;1.38;;;16.60;99.90;;;;;;5092605;28;20209;-70
2022/07/16 02:52:38;;;;;;;2.60;1.27;;;16.60;99.90;;;;;;5092495;28;20198;-70
2022/07/16 02:55:05;;;;;;;2.90;1.05;;;16.70;99.90;;;;;;5074664;28;20654;-70
2022/07/16 02:57:31;;;;;;;2.10;1.27;;;16.70;99.90;;;;;;5092436;28;20206;-70
2022/07/16 02:59:56;;;;;;;1.55;0.80;;;16.70;99.90;;;;;;5093129;28;20170;-70
2022/07/16 03:02:22;;;;;;;1.65;1.20;;;16.80;99.90;;;;;;5092415;28;20198;-69
2022/07/16 03:04:47;;;;;;;2.35;0.95;;;16.70;99.90;;;;;;5091756;28;20285;-70
2022/07/16 03:07:13;;;;;;;1.45;1.00;;;16.80;99.90;;;;;;5091357;28;20261;-71
2022/07/16 03:09:38;;;;;;;1.73;0.70;;;16.80;99.90;;;;;;5091974;28;20240;-71
2022/07/16 03:12:04;;;;;;;2.15;0.80;;;16.70;99.90;;;;;;5092548;28;20174;-70
2022/07/16 03:14:30;;;;;;;2.15;0.93;;;16.80;99.90;;;;;;5092474;28;20241;-70
2022/07/16 03:16:55;;;;;;;3.20;1.20;;;16.90;99.90;;;;;;5092234;28;20687;-70
2022/07/16 03:19:21;;;;;;;2.03;1.00;;;16.90;99.90;;;;;;5091760;28;20566;-69
2022/07/16 03:21:46;;;;;;;2.08;1.00;;;16.80;99.90;;;;;;5092404;28;20759;-70
2022/07/16 03:24:12;;;;;;;3.05;1.52;;;16.80;99.90;;;;;;5092998;28;20722;-71
2022/07/16 03:26:37;;;;;;;2.95;1.23;;;16.90;99.90;;;;;;5093438;28;20658;-70
2022/07/16 03:29:03;;;;;;;2.75;1.13;;;16.90;99.90;;;;;;5093111;28;20678;-70
2022/07/16 03:31:29;;;;;;;4.25;0.98;;;16.90;99.90;;;;;;5074773;28;20198;-70
2022/07/16 03:33:54;;;;;;;2.60;1.00;;;16.90;99.90;;;;;;5073207;28;20210;-70
2022/07/16 03:36:20;;;;;;;3.50;0.77;;;16.90;99.90;;;;;;5091934;28;20197;-71
2022/07/16 03:39:04;;;;;;;2.53;0.57;;;16.90;99.90;;;;;;5092266;28;20181;-70
2022/07/16 03:41:31;;;;;;;1.77;0.70;;;16.90;99.90;;;;;;5092291;28;20271;-70
2022/07/16 03:43:58;;;;;;;1.35;0.80;;;16.80;99.90;;;;;;5092072;28;20218;-70
2022/07/16 03:46:23;;;;;;;1.77;1.00;;;16.80;99.90;;;;;;5091790;28;20578;-70
2022/07/16 03:48:49;;;;;;;3.97;0.80;;;16.80;99.90;;;;;;5091907;28;20210;-70
2022/07/16 03:51:14;;;;;;;1.33;0.88;;;16.80;99.90;;;;;;5073725;28;20200;-70
2022/07/16 03:53:41;;;;;;;2.10;1.25;;;16.80;99.90;;;;;;5092209;28;20206;-71
2022/07/16 03:56:07;;;;;;;2.65;0.88;;;16.90;99.90;;;;;;5091832;28;20218;-70
2022/07/16 03:58:33;;;;;;;1.88;0.95;;;16.90;99.90;;;;;;5091232;28;20750;-72
2022/07/16 04:00:58;;;;;;;1.70;0.90;;;16.90;99.90;;;;;;5091423;28;20294;-70
2022/07/16 04:03:24;;;;;;;3.35;0.85;;;16.90;99.90;;;;;;5091374;28;20674;-70
2022/07/16 04:05:50;;;;;;;2.22;0.60;;;16.80;99.90;;;;;;5091608;28;20179;-70
2022/07/16 04:08:16;;;;;;;2.53;0.52;;;16.80;99.90;;;;;;5090814;28;20210;-70
2022/07/16 04:10:42;;;;;;;2.60;1.00;;;16.80;99.90;;;;;;5091290;28;20699;-70
2022/07/16 04:13:07;;;;;;;3.78;0.60;;;16.80;99.90;;;;;;5089640;28;20213;-70
2022/07/16 04:15:33;;;;;;;2.33;0.77;;;16.80;99.90;;;;;;5073112;28;20586;-70
2022/07/16 04:17:59;;;;;;;2.35;0.70;;;16.80;99.90;;;;;;5091297;28;20627;-71
2022/07/16 04:20:24;;;;;;;1.85;0.80;;;16.80;99.90;;;;;;5091111;28;20202;-70
2022/07/16 04:22:50;;;;;;;1.08;0.80;;;16.90;99.90;;;;;;5091029;28;20209;-69
2022/07/16 04:25:15;;;;;;;0.77;0.60;;;16.90;99.90;;;;;;5091058;28;20236;-70
2022/07/16 04:27:42;;;;;;;1.25;0.65;;;16.90;99.90;;;;;;5072708;28;20248;-70
2022/07/16 04:30:09;;;;;;;2.83;1.05;;;16.90;99.90;;;;;;5090994;28;20589;-70
2022/07/16 04:32:36;;;;;;;1.65;0.80;;;16.80;99.90;;;;;;5091473;28;20185;-70
2022/07/16 04:35:02;;;;;;;2.20;0.60;;;16.90;99.90;;;;;;5091016;28;20289;-69
2022/07/16 04:37:27;;;;;;;1.42;0.73;;;16.80;99.90;;;;;;5072990;28;20230;-70
2022/07/16 04:39:53;;;;;;;2.70;0.85;;;16.70;99.90;;;;;;5072583;28;20221;-70
2022/07/16 04:42:18;;;;;;;1.17;0.60;;;16.70;99.90;;;;;;5091064;28;20178;-70
2022/07/16 04:44:44;;;;;;;10.05;5.57;;;16.70;99.90;;;;;;5091060;28;20231;-69
2022/07/16 04:47:10;;;;;;;12.73;7.05;;;16.70;99.90;;;;;;5077810;28;20210;-70
2022/07/16 04:49:35;;;;;;;3.25;1.35;;;16.80;99.90;;;;;;5090663;28;20202;-70
2022/07/16 04:52:01;;;;;;;2.53;0.85;;;16.70;99.90;;;;;;5072554;28;20206;-70
2022/07/16 04:54:27;;;;;;;1.75;0.73;;;16.70;99.90;;;;;;5090563;28;20218;-70
2022/07/16 04:56:53;;;;;;;1.65;0.90;;;16.80;99.90;;;;;;5091337;28;20170;-69
2022/07/16 04:59:19;;;;;;;2.55;0.98;;;16.80;99.90;;;;;;5090173;28;20209;-70
2022/07/16 05:01:45;;;;;;;2.47;1.30;;;16.80;99.90;;;;;;5090638;28;20672;-70
2022/07/16 05:04:10;;;;;;;1.60;0.80;;;16.80;99.90;;;;;;5090768;28;20216;-70
2022/07/16 05:06:36;;;;;;;2.47;0.80;;;16.90;99.90;;;;;;5090486;28;20210;-71
2022/07/16 05:09:02;;;;;;;1.25;0.80;;;16.90;99.90;;;;;;5090999;28;20301;-70
2022/07/16 05:11:28;;;;;;;3.40;1.00;;;16.80;99.90;;;;;;5090578;28;20206;-70
2022/07/16 05:13:54;;;;;;;1.85;0.80;;;16.90;99.90;;;;;;5090349;28;20617;-70
2022/07/16 05:16:20;;;;;;;1.73;0.70;;;16.90;99.90;;;;;;5090599;28;20210;-70
2022/07/16 05:18:46;;;;;;;2.42;0.80;;;17.00;99.90;;;;;;5072024;28;20277;-69
2022/07/16 05:21:12;;;;;;;3.20;0.82;;;17.00;99.90;;;;;;5090608;28;20179;-70
2022/07/16 05:23:37;;;;;;;2.65;0.82;;;17.10;99.90;;;;;;5090876;28;20244;-70
2022/07/16 05:26:03;;;;;;;2.45;0.70;;;17.10;99.90;;;;;;5090643;28;20194;-71
2022/07/16 05:28:29;;;;;;;2.08;0.90;;;17.10;99.90;;;;;;5071644;28;20271;-70
2022/07/16 05:30:55;;;;;;;5.28;1.00;;;17.10;99.90;;;;;;5093779;28;20213;-69
2022/07/16 05:33:20;;;;;;;0.95;0.75;;;17.20;99.90;;;;;;5094475;28;20190;-70
2022/07/16 05:35:46;;;;;;;1.50;1.02;;;17.30;99.90;;;;;;5095159;28;20648;-69
2022/07/16 05:38:12;;;;;;;3.72;0.90;;;17.40;99.90;;;;;;5094286;28;20202;-70
2022/07/16 05:40:38;;;;;;;1.13;0.90;;;17.50;99.90;;;;;;5076153;28;20583;-70
2022/07/16 05:43:04;;;;;;;2.22;0.95;;;17.50;99.90;;;;;;5094109;28;20210;-70
2022/07/16 05:45:30;;;;;;;2.85;1.10;;;17.40;99.90;;;;;;5094104;28;20221;-70
2022/07/16 05:47:56;;;;;;;2.25;1.30;;;17.40;99.90;;;;;;5094690;28;20206;-71
2022/07/16 05:50:21;;;;;;;5.05;1.35;;;17.50;99.90;;;;;;5093870;28;20280;-70
2022/07/16 05:52:47;;;;;;;2.35;1.35;;;17.50;99.90;;;;;;5075950;28;20328;-70
2022/07/16 05:55:12;;;;;;;2.63;1.00;;;17.50;99.90;;;;;;5094089;28;20198;-70
2022/07/16 05:57:38;;;;;;;3.92;1.38;;;17.50;99.90;;;;;;5093937;28;20213;-70
2022/07/16 06:00:06;;;;;;;2.63;1.48;;;17.30;99.90;;;;;;5075511;28;20546;-70
2022/07/16 06:02:31;;;;;;;4.60;1.25;;;17.30;99.90;;;;;;5094311;28;20202;-71
2022/07/16 06:04:57;;;;;;;5.35;1.45;;;17.30;99.90;;;;;;5075629;28;20659;-71
2022/07/16 06:07:22;;;;;;;4.45;1.20;;;17.20;99.90;;;;;;5093769;28;20210;-71
2022/07/16 06:09:48;;;;;;;4.43;1.60;;;17.00;99.90;;;;;;5093433;28;20233;-71
2022/07/16 06:12:13;;;;;;;4.72;1.48;;;16.70;99.90;;;;;;5093448;28;20174;-70
2022/07/16 06:14:39;;;;;;;4.63;1.60;;;16.60;99.90;;;;;;5093635;28;20214;-70
2022/07/16 06:17:04;;;;;;;4.15;1.60;;;16.60;99.90;;;;;;5093229;28;20225;-70
2022/07/16 06:19:30;;;;;;;2.03;1.80;;;16.50;99.90;;;;;;5092969;28;20206;-70
2022/07/16 06:21:56;;;;;;;3.53;1.50;;;16.40;99.90;;;;;;5093477;28;20206;-71
2022/07/16 06:24:21;;;;;;;5.05;1.90;;;16.30;99.90;;;;;;5093671;28;20292;-71
2022/07/16 06:26:47;;;;;;;3.97;2.17;;;16.30;99.90;;;;;;5094079;28;20698;-69
2022/07/16 06:29:17;;;;;;;2.72;1.83;;;16.20;99.90;;;;;;5093215;28;20202;-70
2022/07/16 06:31:43;;;;;;;7.30;2.60;;;16.10;99.90;;;;;;5093282;28;20236;-70
2022/07/16 06:34:09;;;;;;;3.10;2.25;;;16.10;99.90;;;;;;5076740;28;20279;-70
2022/07/16 06:36:35;;;;;;;4.32;2.00;;;16.00;99.90;;;;;;5075888;28;20251;-70
2022/07/16 06:39:01;;;;;;;3.80;1.90;;;15.90;99.90;;;;;;5094039;28;20663;-70
2022/07/16 06:41:26;;;;;;;4.22;2.10;;;15.90;99.90;;;;;;5093408;28;20210;-70
2022/07/16 06:43:52;;;;;;;2.92;1.75;;;15.90;99.90;;;;;;5094089;28;20214;-70
2022/07/16 06:46:17;;;;;;;2.50;1.85;;;15.90;99.90;;;;;;5075964;28;20206;-70
2022/07/16 06:48:43;;;;;;;3.97;2.30;;;15.80;99.90;;;;;;5093406;28;20202;-70
2022/07/16 06:51:09;;;;;;;4.00;2.00;;;15.90;99.90;;;;;;5093979;28;20601;-70
2022/07/16 06:53:36;;;;;;;3.47;1.60;;;15.80;99.90;;;;;;5075980;28;20202;-70
2022/07/16 06:56:02;;;;;;;2.72;1.67;;;15.90;99.90;;;;;;5093162;28;20206;-70
2022/07/16 06:58:28;;;;;;;5.80;2.20;;;15.90;99.90;;;;;;5093118;28;20222;-70
2022/07/16 07:00:53;;;;;;;2.88;1.80;;;15.90;99.90;;;;;;5075685;28;20632;-70
2022/07/16 07:03:19;;;;;;;3.05;1.88;;;16.10;99.90;;;;;;5093338;28;20202;-70
2022/07/16 07:05:44;;;;;;;3.80;2.28;;;16.10;99.90;;;;;;5094044;28;20179;-70
2022/07/16 07:08:10;;;;;;;3.70;1.63;;;16.30;99.90;;;;;;5092962;28;20222;-70
2022/07/16 07:10:35;;;;;;;4.10;1.88;;;16.70;99.90;;;;;;5093298;28;20278;-70
2022/07/16 07:13:02;;;;;;;3.78;2.10;;;17.10;99.90;;;;;;5088967;28;20304;-70
2022/07/16 07:15:28;;;;;;;4.88;2.10;;;17.30;99.90;;;;;;5094059;28;20214;-70
2022/07/16 07:17:53;;;;;;;4.70;1.75;;;17.40;99.90;;;;;;5076033;28;20208;-70
2022/07/16 07:20:19;;;;;;;3.53;1.58;;;17.50;99.90;;;;;;5076199;28;20282;-70
2022/07/16 07:22:45;;;;;;;2.70;1.80;;;17.80;99.90;;;;;;5094843;28;20284;-72
2022/07/16 07:25:10;;;;;;;4.68;1.90;;;20.40;99.90;;;;;;5094407;28;20229;-70
2022/07/16 07:27:36;;;;;;;2.78;1.77;;;21.30;99.90;;;;;;5094816;28;20222;-71
2022/07/16 07:30:03;;;;;;;1.83;1.40;;;21.00;99.90;;;;;;5094971;28;20647;-70
2022/07/16 07:32:29;;;;;;;3.92;1.92;;;21.10;99.90;;;;;;5075532;28;20210;-70
2022/07/16 07:34:55;;;;;;;4.63;2.40;;;20.60;99.90;;;;;;5075751;28;20259;-71
2022/07/16 07:37:20;;;;;;;3.35;1.77;;;20.10;99.90;;;;;;5075383;28;20709;-71
2022/07/16 07:39:46;;;;;;;3.95;2.00;;;20.00;99.90;;;;;;5093616;28;20563;-69
2022/07/16 07:42:12;;;;;;;4.80;1.80;;;20.40;99.90;;;;;;5093372;28;20182;-70
2022/07/16 07:44:38;;;;;;;2.50;1.70;;;20.10;99.90;;;;;;5093915;28;20214;-70
2022/07/16 07:47:04;;;;;;;2.97;2.08;;;19.90;99.90;;;;;;5092790;28;20202;-70
2022/07/16 07:49:29;;;;;;;4.97;2.65;;;20.00;99.90;;;;;;5092397;28;20591;-70
2022/07/16 07:51:55;;;;;;;2.58;1.65;;;19.70;99.90;;;;;;5092570;28;20260;-70
2022/07/16 07:54:21;;;;;;;2.58;1.70;;;19.70;99.90;;;;;;5073662;28;20659;-69
2022/07/16 07:56:47;;;;;;;2.67;1.80;;;20.70;99.90;;;;;;5093349;28;20236;-70
2022/07/16 07:59:13;;;;;;;2.40;1.33;;;22.30;99.90;;;;;;5092862;28;20263;-70
2022/07/16 08:01:38;;;;;;;3.33;1.42;;;22.20;99.90;;;;;;5092483;28;20214;-71
2022/07/16 08:04:04;;;;;;;3.15;1.88;;;22.10;99.90;;;;;;5073662;28;20206;-70
2022/07/16 08:06:30;;;;;;;1.77;1.60;;;23.00;99.90;;;;;;5092439;28;20232;-71
2022/07/16 08:08:55;;;;;;;4.10;1.95;;;23.50;99.90;;;;;;5092215;28;20205;-69
2022/07/16 08:11:21;;;;;;;2.03;1.05;;;24.60;99.90;;;;;;5073813;28;20210;-70
2022/07/16 08:16:16;;;;;;;5.55;1.60;;;24.80;99.90;;;;;;5068293;28;20215;-71
2022/07/16 08:18:41;;;;;;;4.47;1.33;;;23.80;99.90;;;;;;5070083;28;20276;-70
2022/07/16 08:21:07;;;;;;;5.03;2.00;;;23.40;99.90;;;;;;5070781;28;20214;-71
2022/07/16 08:26:16;;;;;;;1.92;1.08;;;24.80;99.90;;;;;;5050610;28;20584;-70
2022/07/16 08:28:42;;;;;;;1.48;1.23;;;24.50;99.90;;;;;;5049941;28;20211;-71
2022/07/16 08:31:08;;;;;;;1.75;1.02;;;24.60;99.90;;;;;;5050624;28;20204;-70
2022/07/16 08:33:34;;;;;;;1.98;1.40;;;24.30;99.90;;;;;;5050480;28;20291;-70
2022/07/16 08:36:02;;;;;;;2.53;1.50;;;23.70;99.90;;;;;;5050841;28;20225;-71
2022/07/16 08:38:28;;;;;;;2.88;1.17;;;22.60;99.90;;;;;;5050222;28;20215;-70
2022/07/16 08:40:58;;;;;;;1.73;1.10;;;22.50;99.90;;;;;;5050512;28;20203;-70
2022/07/16 08:43:24;;;;;;;1.67;1.35;;;23.40;99.90;;;;;;5050231;28;20235;-70
2022/07/16 08:45:50;;;;;;;2.45;1.73;;;23.50;99.90;;;;;;5050217;28;20696;-69
2022/07/16 08:48:16;;;;;;;2.03;1.50;;;23.50;99.90;;;;;;5050018;28;20275;-70
2022/07/16 08:50:42;;;;;;;1.67;1.23;;;23.10;99.90;;;;;;5050784;28;20266;-70
2022/07/16 08:53:09;;;;;;;1.58;1.38;;;24.10;99.90;;;;;;5050477;28;20200;-70
2022/07/16 08:55:37;;;;;;;1.52;1.38;;;24.20;99.90;;;;;;5050143;28;20719;-69
2022/07/16 08:58:06;;;;;;;1.48;1.10;;;24.80;99.90;;;;;;5040753;28;20230;-69
2022/07/16 09:00:32;;;;;;;1.25;1.02;;;25.60;99.90;;;;;;5051315;28;20261;-70
2022/07/16 09:02:58;;;;;;;2.65;1.10;;;26.30;99.90;;;;;;5051510;28;20700;-70
2022/07/16 09:05:24;;;;;;;2.55;1.00;;;26.00;99.90;;;;;;5049281;28;20207;-71
2022/07/16 09:07:50;;;;;;;2.90;2.08;;;24.70;99.90;;;;;;5050055;28;20207;-70
2022/07/16 09:10:16;;;;;;;2.60;1.30;;;24.70;99.90;;;;;;5050097;28;20643;-70
2022/07/16 09:12:47;;;;;;;3.92;1.90;;;24.90;99.90;;;;;;5049869;28;20202;-70
2022/07/16 09:15:33;;;;;;;3.50;2.03;;;25.70;99.90;;;;;;5044587;28;20330;-70
2022/07/16 09:18:22;;;;;;;2.13;1.00;;;26.20;99.90;;;;;;5044089;28;20191;-70
2022/07/16 09:20:57;;;;;;;2.08;1.30;;;26.70;99.90;;;;;;5041021;28;20212;-69
2022/07/16 09:23:31;;;;;;;3.80;2.88;;;25.20;99.90;;;;;;5034050;28;20258;-70
2022/07/16 09:25:58;;;;;;;2.75;0.85;;;24.30;99.90;;;;;;5049980;28;20206;-70
2022/07/16 09:28:25;;;;;;;2.72;0.90;;;23.50;99.90;;;;;;5064696;28;20235;-71
2022/07/16 09:30:51;;;;;;;1.20;1.00;;;22.40;99.90;;;;;;5040325;28;20231;-70
2022/07/16 09:33:19;;;;;;;1.45;0.80;;;23.10;99.90;;;;;;5050051;28;20183;-70
2022/07/16 09:35:47;;;;;;;1.10;0.85;;;23.60;99.90;;;;;;5050293;28;20191;-70
2022/07/16 09:38:12;;;;;;;1.55;0.90;;;23.40;99.90;;;;;;5049640;28;20232;-70
2022/07/16 09:40:45;;;;;;;0.98;0.80;;;23.90;99.90;;;;;;5052192;28;20199;-70
2022/07/16 09:43:13;;;;;;;1.60;0.85;;;23.60;99.90;;;;;;5054421;28;20223;-70
2022/07/16 09:45:45;;;;;;;2.00;0.90;;;24.10;99.90;;;;;;5049465;28;20208;-71
2022/07/16 09:48:22;;;;;;;2.55;1.10;;;24.20;99.90;;;;;;5044569;28;20204;-70
2022/07/16 09:50:48;;;;;;;4.65;1.80;;;23.30;99.90;;;;;;5058393;28;20203;-70
2022/07/16 09:53:19;;;;;;;2.03;1.27;;;23.80;99.90;;;;;;5049897;28;20200;-71
2022/07/16 09:55:59;;;;;;;2.03;1.02;;;23.40;99.90;;;;;;5064823;28;20599;-70
2022/07/16 09:58:25;;;;;;;3.17;1.17;;;23.20;99.90;;;;;;5049079;28;20203;-71
2022/07/16 10:00:51;;;;;;;1.90;1.10;;;23.90;99.90;;;;;;5049525;28;20210;-71
2022/07/16 10:03:17;;;;;;;1.33;1.23;;;23.90;99.90;;;;;;5049750;28;20208;-72
2022/07/16 10:05:42;;;;;;;3.30;1.35;;;23.60;99.90;;;;;;5040768;28;20218;-71
2022/07/16 10:08:08;;;;;;;2.75;1.10;;;23.20;99.90;;;;;;5049356;28;20207;-70
2022/07/16 10:10:34;;;;;;;1.05;0.80;;;23.30;99.90;;;;;;5049435;28;20295;-70
2022/07/16 10:13:00;;;;;;;4.85;2.55;;;22.80;99.90;;;;;;5049372;28;20613;-70
2022/07/16 10:15:25;;;;;;;3.20;2.17;;;23.30;99.90;;;;;;5049507;28;20711;-70
2022/07/16 10:17:51;;;;;;;2.00;1.23;;;23.40;99.90;;;;;;5053593;28;20171;-69
2022/07/16 10:20:19;;;;;;;3.00;1.23;;;23.60;99.90;;;;;;5053248;28;20207;-70
2022/07/16 10:22:47;;;;;;;7.60;3.72;;;23.80;99.90;;;;;;5052970;28;20751;-70
2022/07/16 10:25:24;;;;;;;1.30;0.77;;;23.40;99.90;;;;;;5047857;28;20207;-71
2022/07/16 10:27:51;;;;;;;1.48;0.95;;;23.50;99.90;;;;;;5044766;28;20651;-70
2022/07/16 10:30:22;;;;;;;2.45;1.00;;;23.50;99.90;;;;;;5046926;28;20266;-71
2022/07/16 10:33:00;;;;;;;6.20;2.13;;;23.60;99.90;;;;;;5045311;28;20168;-70
2022/07/16 10:35:30;;;;;;;2.30;1.00;;;23.40;99.90;;;;;;5052534;28;20208;-70
2022/07/16 10:38:20;;;;;;;2.55;1.20;;;23.20;99.90;;;;;;5052795;28;20223;-70
2022/07/16 10:41:03;;;;;;;5.38;1.00;;;23.20;99.90;;;;;;5046918;28;20200;-69
2022/07/16 10:43:29;;;;;;;1.98;1.10;;;22.70;99.90;;;;;;5040257;28;20223;-70
2022/07/16 10:45:57;;;;;;;3.20;0.90;;;23.00;99.90;;;;;;5052071;28;20207;-71
2022/07/16 10:48:30;;;;;;;2.47;1.10;;;23.00;99.90;;;;;;5052338;28;20308;-71
2022/07/16 10:51:18;;;;;;;6.50;1.38;;;23.20;99.90;;;;;;5053237;28;20203;-70
2022/07/16 10:53:56;;;;;;;2.08;1.55;;;23.20;99.90;;;;;;5067997;28;20199;-69
2022/07/16 10:56:51;;;;;;;3.35;1.48;;;23.60;99.90;;;;;;5052082;28;20699;-70
2022/07/16 10:59:29;;;;;;;1.60;0.82;;;23.50;99.90;;;;;;5043339;28;20223;-70
2022/07/16 11:01:57;;;;;;;3.20;1.08;;;22.80;99.90;;;;;;5042840;28;20627;-70
2022/07/16 11:04:28;;;;;;;2.50;1.13;;;22.20;99.90;;;;;;5064389;28;20204;-71
2022/07/16 11:06:54;;;;;;;1.65;1.23;;;22.10;99.90;;;;;;5067808;28;20206;-70
2022/07/16 11:09:28;;;;;;;1.30;0.90;;;22.00;99.90;;;;;;5052145;28;20175;-70
2022/07/16 11:11:55;;;;;;;3.50;1.23;;;22.20;99.90;;;;;;5045627;28;20171;-70
2022/07/16 11:14:29;;;;;;;5.60;1.80;;;22.10;99.90;;;;;;5033920;28;20214;-70
2022/07/16 11:16:56;;;;;;;7.47;1.30;;;22.20;99.90;;;;;;5052171;28;20704;-69
2022/07/16 11:19:22;;;;;;;1.27;0.80;;;22.00;99.90;;;;;;5045038;28;20200;-70
2022/07/16 11:21:59;;;;;;;2.00;1.02;;;22.20;99.90;;;;;;5041901;28;20284;-70
2022/07/16 11:24:26;;;;;;;1.40;0.77;;;22.80;99.90;;;;;;5064064;28;20282;-70
2022/07/16 11:26:52;;;;;;;4.57;1.15;;;22.30;99.90;;;;;;5051708;28;20168;-71
2022/07/16 11:29:23;;;;;;;4.55;1.27;;;22.00;99.90;;;;;;5062068;28;20208;-70
2022/07/16 11:31:49;;;;;;;3.78;0.90;;;22.20;99.90;;;;;;5044022;28;20214;-70
2022/07/16 11:34:18;;;;;;;1.15;0.80;;;22.30;99.90;;;;;;5051656;28;20621;-70
2022/07/16 11:36:46;;;;;;;4.10;0.90;;;22.00;99.90;;;;;;5051618;28;20252;-69
2022/07/16 11:39:20;;;;;;;2.42;1.00;;;21.80;99.90;;;;;;5059722;28;20182;-71
2022/07/16 11:41:49;;;;;;;2.67;0.82;;;21.70;99.90;;;;;;5052061;28;20560;-72
2022/07/16 11:44:23;;;;;;;5.25;1.02;;;21.90;99.90;;;;;;5051251;28;20231;-71
2022/07/16 11:46:51;;;;;;;3.15;0.98;;;21.90;99.90;;;;;;5051531;28;20724;-70
2022/07/16 11:49:26;;;;;;;3.15;1.35;;;22.10;99.90;;;;;;5051120;28;20219;-71
2022/07/16 11:51:53;;;;;;;1.25;0.77;;;22.30;99.90;;;;;;5065802;28;20639;-71
2022/07/16 11:54:20;;;;;;;1.83;0.85;;;22.10;99.90;;;;;;5059443;28;20197;-71
2022/07/16 11:56:45;;;;;;;1.80;0.85;;;22.10;99.90;;;;;;5051604;28;20218;-70
2022/07/16 11:59:25;;;;;;;3.92;1.30;;;22.30;99.90;;;;;;5045953;28;20209;-70
2022/07/16 12:02:09;;;;;;;2.47;0.90;;;22.70;99.90;;;;;;5043766;28;20219;-70
2022/07/16 12:04:47;;;;;;;3.92;1.13;;;22.90;99.90;;;;;;5043161;28;20235;-70
2022/07/16 12:07:16;;;;;;;3.83;1.52;;;23.00;99.50;;;;;;5057840;28;20290;-71
2022/07/16 12:09:44;;;;;;;2.80;1.02;;;23.10;99.20;;;;;;5036901;28;20282;-71
2022/07/16 12:12:24;;;;;;;2.70;1.55;;;23.00;99.50;;;;;;5051045;28;20211;-70
2022/07/16 12:14:54;;;;;;;4.00;1.30;;;22.60;99.30;;;;;;5049283;28;20533;-71
2022/07/16 12:17:38;;;;;;;4.22;1.65;;;22.40;99.80;;;;;;5062929;28;20740;-71
2022/07/16 12:20:06;;;;;;;2.40;1.25;;;22.30;99.90;;;;;;5047021;28;20207;-71
2022/07/16 12:23:01;;;;;;;3.85;1.10;;;22.50;98.70;;;;;;5050980;28;20291;-71
2022/07/16 12:25:30;;;;;;;2.83;0.90;;;22.60;98.40;;;;;;5050621;28;20288;-71
2022/07/16 12:28:03;;;;;;;2.33;0.98;;;22.60;98.50;;;;;;5050630;28;20215;-71
2022/07/16 12:30:42;;;;;;;1.85;1.13;;;22.70;98.90;;;;;;5050792;28;20261;-70
2022/07/16 12:33:23;;;;;;;3.35;1.00;;;23.00;98.80;;;;;;5050904;28;20179;-71
2022/07/16 12:35:55;;;;;;;2.92;1.17;;;23.20;98.40;;;;;;5050909;28;20561;-70
2022/07/16 12:38:54;;;;;;;2.53;0.98;;;22.80;98.10;;;;;;5050079;28;20203;-71
2022/07/16 12:41:25;;;;;;;1.90;0.73;;;22.60;98.20;;;;;;5050712;28;20231;-70
2022/07/16 12:44:00;;;;;;;3.22;1.10;;;22.70;98.60;;;;;;5040613;28;20291;-70
2022/07/16 12:46:32;;;;;;;2.60;1.17;;;22.80;98.10;;;;;;5049524;28;20257;-71
2022/07/16 12:49:03;;;;;;;2.67;0.80;;;22.60;97.60;;;;;;5050347;28;20208;-72
2022/07/16 12:51:37;;;;;;;2.45;1.13;;;22.40;97.70;;;;;;5050790;28;20772;-71
2022/07/16 12:54:04;;;;;;;2.92;0.90;;;22.70;98.40;;;;;;5050914;28;20200;-71
2022/07/16 12:59:15;;;;;;;3.85;1.20;;;22.90;97.50;;;;;;5050188;28;20217;-71
2022/07/16 13:01:41;;;;;;;4.75;1.00;;;22.60;97.80;;;;;;5040985;28;20719;-71